Time;durP1;ratioP1;P1;durP2;ratioP2;P2;SDS_P1;SDS_P2;PMS_P1;PMS_P2;Temp;Humidity;BMP_temperature;BMP_pressure;BME280_temperature;BME280_humidity;BME280_pressure;Samples;Min_cycle;Max_cycle;Signal;HPM_P1;HPM_P2
2021/04/18 00:00:33;;;;;;;16.67;7.68;;;;;;;6.27;70.69;93474.94;4996937;28;20485;-70
2021/04/18 00:03:01;;;;;;;15.10;8.60;;;;;;;6.25;70.56;93473.63;5000341;28;20101;-69
2021/04/18 00:05:28;;;;;;;14.82;8.50;;;;;;;6.26;70.33;93477.88;5010206;28;20060;-68
2021/04/18 00:08:02;;;;;;;12.18;8.40;;;;;;;6.17;70.69;93478.56;4999979;28;20030;-69
2021/04/18 00:10:33;;;;;;;14.13;9.93;;;;;;;6.09;70.64;93478.47;5005409;28;20069;-69
2021/04/18 00:12:59;;;;;;;15.13;9.30;;;;;;;6.09;70.74;93479.25;5003126;28;20544;-69
2021/04/18 00:15:25;;;;;;;16.27;9.15;;;;;;;6.13;70.85;93479.44;5004105;28;20165;-69
2021/04/18 00:17:51;;;;;;;13.85;10.48;;;;;;;6.15;70.68;93477.28;5004506;28;20405;-69
2021/04/18 00:20:17;;;;;;;19.55;10.20;;;;;;;6.18;70.78;93461.59;5004722;28;20037;-69
2021/04/18 00:22:43;;;;;;;18.92;11.38;;;;;;;6.13;70.71;93464.34;5010525;28;20021;-69
2021/04/18 00:25:13;;;;;;;22.15;10.75;;;;;;;6.05;71.10;93456.31;4997391;28;20180;-69
2021/04/18 00:27:39;;;;;;;17.67;10.57;;;;;;;6.09;71.11;93459.94;5004172;28;20026;-69
2021/04/18 00:30:07;;;;;;;18.25;10.93;;;;;;;6.16;71.02;93458.44;4999116;28;20375;-69
2021/04/18 00:32:33;;;;;;;17.33;11.27;;;;;;;6.11;71.18;93453.28;5002758;28;20041;-69
2021/04/18 00:34:58;;;;;;;17.45;11.43;;;;;;;6.11;71.13;93460.44;5005643;28;20409;-69
2021/04/18 00:37:23;;;;;;;16.85;11.52;;;;;;;6.08;71.20;93468.94;4996127;28;20433;-69
2021/04/18 00:39:49;;;;;;;20.33;12.13;;;;;;;6.10;71.20;93464.16;5000725;28;20095;-69
2021/04/18 00:42:14;;;;;;;20.35;11.95;;;;;;;6.10;71.45;93462.28;5009250;28;20026;-69
2021/04/18 00:44:40;;;;;;;18.30;11.82;;;;;;;6.07;71.35;93459.47;5008042;28;20124;-69
2021/04/18 00:47:05;;;;;;;16.92;12.35;;;;;;;6.08;71.42;93456.50;4999165;28;20152;-69
2021/04/18 00:49:31;;;;;;;22.27;12.30;;;;;;;6.10;71.51;93456.97;4998542;28;20350;-69
2021/04/18 00:51:56;;;;;;;20.88;11.45;;;;;;;6.08;71.66;93453.84;4993496;28;20099;-70
2021/04/18 00:54:22;;;;;;;16.23;10.52;;;;;;;6.06;71.51;93461.28;4999196;28;20453;-71
2021/04/18 00:56:47;;;;;;;19.50;12.27;;;;;;;6.08;71.79;93458.38;5006838;28;20044;-70
2021/04/18 00:59:13;;;;;;;17.13;11.63;;;;;;;6.10;71.71;93456.22;5004094;28;20073;-69
2021/04/18 01:01:38;;;;;;;18.02;12.23;;;;;;;6.13;71.65;93461.69;5001415;28;20038;-69
2021/04/18 01:04:04;;;;;;;16.88;11.57;;;;;;;6.21;71.54;93463.66;5003640;28;20394;-70
2021/04/18 01:06:30;;;;;;;20.95;12.63;;;;;;;6.19;71.45;93471.09;4996929;28;20026;-70
2021/04/18 01:08:55;;;;;;;19.33;13.25;;;;;;;6.21;71.34;93468.94;5004287;28;20026;-69
2021/04/18 01:11:21;;;;;;;18.83;12.55;;;;;;;6.27;71.51;93471.47;5006067;28;20061;-70
2021/04/18 01:13:46;;;;;;;17.38;12.13;;;;;;;6.30;71.16;93457.69;4997936;28;20046;-69
2021/04/18 01:16:12;;;;;;;18.70;12.00;;;;;;;6.32;70.98;93432.47;4998908;28;20044;-70
2021/04/18 01:18:37;;;;;;;19.27;11.65;;;;;;;6.33;70.46;93449.13;5010659;28;20030;-70
2021/04/18 01:21:10;;;;;;;25.30;14.20;;;;;;;6.33;70.73;93443.84;5002860;28;20580;-70
2021/04/18 01:23:36;;;;;;;22.50;13.60;;;;;;;6.31;70.80;93446.00;4998988;28;20025;-70
2021/04/18 01:26:02;;;;;;;23.85;14.57;;;;;;;6.31;70.88;93461.88;5002256;28;20026;-69
2021/04/18 01:28:28;;;;;;;22.10;13.00;;;;;;;6.24;70.90;93456.97;4998475;28;20033;-70
2021/04/18 01:30:54;;;;;;;25.33;14.50;;;;;;;6.26;70.89;93443.47;5006273;28;20029;-70
2021/04/18 01:33:20;;;;;;;25.27;13.82;;;;;;;6.28;70.76;93449.25;5003681;28;20109;-69
2021/04/18 01:35:47;;;;;;;23.67;14.10;;;;;;;6.25;70.92;93441.88;5005081;28;20097;-69
2021/04/18 01:38:14;;;;;;;26.42;14.00;;;;;;;6.19;70.52;93426.13;5006395;28;20482;-69
2021/04/18 01:40:41;;;;;;;21.88;13.65;;;;;;;6.13;71.07;93437.88;5004278;28;20049;-70
2021/04/18 01:43:06;;;;;;;23.27;13.98;;;;;;;6.13;71.17;93437.88;4994330;28;20036;-69
2021/04/18 01:45:31;;;;;;;21.25;13.15;;;;;;;6.18;70.93;93437.00;5002212;28;20358;-69
2021/04/18 01:47:57;;;;;;;20.17;12.73;;;;;;;6.14;70.78;93436.03;5004980;28;20108;-70
2021/04/18 01:50:24;;;;;;;23.45;14.18;;;;;;;6.15;70.99;93432.31;5004769;28;20057;-69
2021/04/18 01:52:49;;;;;;;25.65;13.35;;;;;;;6.16;70.78;93433.84;4995702;28;20065;-68
2021/04/18 01:55:16;;;;;;;21.70;13.85;;;;;;;6.20;70.56;93440.91;5006424;28;20069;-69
2021/04/18 01:57:42;;;;;;;24.23;13.35;;;;;;;6.20;70.05;93442.78;4996364;28;20055;-69
2021/04/18 02:00:10;;;;;;;18.80;12.55;;;;;;;6.23;70.30;93437.69;5002715;28;20036;-69
2021/04/18 02:02:36;;;;;;;18.75;12.05;;;;;;;6.25;70.04;93441.88;5002209;28;20044;-69
2021/04/18 02:05:02;;;;;;;19.73;12.52;;;;;;;6.26;69.99;93446.88;4999153;28;20034;-69
2021/04/18 02:07:28;;;;;;;22.77;13.63;;;;;;;6.24;70.18;93446.41;5002656;28;20477;-69
2021/04/18 02:09:53;;;;;;;23.48;13.25;;;;;;;6.25;70.10;93436.59;5003103;28;20087;-68
2021/04/18 02:12:19;;;;;;;23.90;14.38;;;;;;;6.29;69.97;93448.16;5002583;28;20489;-69
2021/04/18 02:14:44;;;;;;;20.98;13.63;;;;;;;6.29;70.41;93425.13;5005320;28;20041;-69
2021/04/18 02:17:10;;;;;;;21.63;13.77;;;;;;;6.29;69.79;93416.41;4992769;28;20030;-68
2021/04/18 02:19:35;;;;;;;22.50;12.57;;;;;;;6.27;69.98;93416.72;4999403;28;20549;-69
2021/04/18 02:22:02;;;;;;;20.60;11.98;;;;;;;6.14;69.80;93412.97;4999733;28;20030;-69
2021/04/18 02:24:28;;;;;;;19.35;11.82;;;;;;;6.14;70.27;93428.09;4999373;28;20112;-69
2021/04/18 02:26:53;;;;;;;20.45;12.63;;;;;;;6.13;70.60;93419.38;5008105;28;20533;-70
2021/04/18 02:29:19;;;;;;;19.67;12.57;;;;;;;6.06;70.14;93436.72;5002054;28;20200;-70
2021/04/18 02:31:44;;;;;;;18.25;11.00;;;;;;;5.99;70.36;93400.84;4998866;28;20124;-69
2021/04/18 02:34:10;;;;;;;24.60;12.88;;;;;;;5.98;70.47;93411.72;5005666;28;20033;-68
2021/04/18 02:36:36;;;;;;;21.20;12.10;;;;;;;5.92;70.51;93405.75;5001388;28;20039;-69
2021/04/18 02:39:05;;;;;;;22.42;12.05;;;;;;;5.83;71.31;93413.56;5000446;28;20032;-69
2021/04/18 02:41:30;;;;;;;23.65;13.75;;;;;;;5.78;71.43;93413.66;4996988;28;20034;-70
2021/04/18 02:43:56;;;;;;;20.77;12.30;;;;;;;5.80;71.15;93411.50;5000905;28;20026;-69
2021/04/18 02:46:21;;;;;;;22.92;12.40;;;;;;;5.78;71.17;93413.66;5003915;28;20440;-68
2021/04/18 02:48:47;;;;;;;23.80;12.75;;;;;;;5.81;71.21;93399.06;5003507;28;20026;-68
2021/04/18 02:51:13;;;;;;;19.42;11.68;;;;;;;5.74;71.29;93412.69;5002535;28;20509;-68
2021/04/18 02:53:39;;;;;;;23.30;13.45;;;;;;;5.72;71.17;93417.47;4996573;28;20052;-69
2021/04/18 02:56:04;;;;;;;20.27;12.50;;;;;;;5.75;71.07;93422.16;5000851;28;20026;-69
2021/04/18 02:58:30;;;;;;;21.30;11.73;;;;;;;5.80;71.28;93427.38;5000026;28;20478;-70
2021/04/18 03:00:55;;;;;;;23.25;12.55;;;;;;;5.75;71.05;93438.03;5009358;28;20420;-68
2021/04/18 03:03:21;;;;;;;27.48;13.90;;;;;;;5.76;71.30;93421.09;5002922;28;20065;-69
2021/04/18 03:05:46;;;;;;;24.35;13.15;;;;;;;5.74;70.89;93422.44;4995767;28;20025;-69
2021/04/18 03:08:12;;;;;;;25.00;14.02;;;;;;;5.63;71.30;93424.50;5001881;28;20041;-68
2021/04/18 03:10:37;;;;;;;26.02;14.02;;;;;;;5.60;71.45;93436.47;5002275;28;20532;-69
2021/04/18 03:13:02;;;;;;;25.10;14.27;;;;;;;5.56;71.06;93440.75;4996059;28;20080;-68
2021/04/18 03:15:28;;;;;;;24.75;14.13;;;;;;;5.60;71.68;93444.38;4996874;28;20505;-68
2021/04/18 03:17:54;;;;;;;25.02;14.23;;;;;;;5.65;71.40;93442.72;5005732;28;20520;-69
2021/04/18 03:20:20;;;;;;;26.20;15.77;;;;;;;5.72;71.12;93451.06;5008655;28;20121;-69
2021/04/18 03:22:45;;;;;;;27.13;14.88;;;;;;;5.72;70.95;93451.84;5005617;28;20127;-69
2021/04/18 03:25:12;;;;;;;31.65;16.13;;;;;;;5.75;70.75;93448.63;5008687;28;20030;-70
2021/04/18 03:27:38;;;;;;;31.13;15.23;;;;;;;5.80;70.45;93461.75;5002080;28;20105;-69
2021/04/18 03:30:07;;;;;;;34.20;15.05;;;;;;;5.82;70.26;93467.53;5004123;28;20449;-69
2021/04/18 03:32:33;;;;;;;27.77;15.55;;;;;;;5.85;70.20;93465.38;5008159;28;20053;-70
2021/04/18 03:34:58;;;;;;;25.50;15.43;;;;;;;5.84;69.91;93464.59;5000998;28;20050;-69
2021/04/18 03:37:24;;;;;;;27.77;16.10;;;;;;;5.83;70.25;93468.31;5011965;28;20111;-69
2021/04/18 03:39:49;;;;;;;29.58;15.93;;;;;;;5.83;70.08;93468.31;5006126;28;20402;-70
2021/04/18 03:42:15;;;;;;;29.75;16.30;;;;;;;5.85;70.06;93455.59;4998541;28;20417;-69
2021/04/18 03:44:40;;;;;;;28.98;15.65;;;;;;;5.85;70.08;93445.00;5008298;28;20113;-69
2021/04/18 03:47:05;;;;;;;29.30;14.93;;;;;;;5.85;70.11;93447.66;5006172;28;20031;-69
2021/04/18 03:49:31;;;;;;;30.15;15.40;;;;;;;5.88;69.91;93446.28;5008113;28;20018;-69
2021/04/18 03:51:57;;;;;;;26.83;15.40;;;;;;;5.84;69.97;93456.66;5004016;28;20041;-69
2021/04/18 03:54:22;;;;;;;31.20;15.45;;;;;;;5.87;70.07;93450.00;5009459;28;20477;-68
2021/04/18 03:56:51;;;;;;;34.63;16.98;;;;;;;5.85;70.18;93449.53;4995453;28;20113;-69
2021/04/18 03:59:17;;;;;;;28.50;16.85;;;;;;;5.89;70.22;93447.84;5006145;28;20045;-68
2021/04/18 04:01:43;;;;;;;30.67;17.20;;;;;;;5.85;70.21;93460.88;5005562;28;20034;-68
2021/04/18 04:04:09;;;;;;;30.15;15.50;;;;;;;5.81;70.68;93452.72;5004382;28;20026;-69
2021/04/18 04:06:35;;;;;;;30.42;16.48;;;;;;;5.83;70.72;93463.81;4993677;28;20477;-69
2021/04/18 04:09:01;;;;;;;29.08;17.17;;;;;;;5.87;70.81;93465.88;4996292;28;20032;-69
2021/04/18 04:11:27;;;;;;;27.92;16.77;;;;;;;5.85;70.72;93470.69;4999025;28;20022;-69
2021/04/18 04:13:52;;;;;;;29.60;16.88;;;;;;;5.80;70.95;93464.41;5005867;28;20121;-68
2021/04/18 04:16:18;;;;;;;29.17;18.77;;;;;;;5.89;71.12;93471.66;5007758;28;20026;-68
2021/04/18 04:18:43;;;;;;;27.20;15.80;;;;;;;5.90;70.82;93478.50;5008835;28;20026;-69
2021/04/18 04:21:08;;;;;;;28.40;16.60;;;;;;;5.93;71.01;93472.66;5003067;28;20041;-69
2021/04/18 04:23:34;;;;;;;29.83;16.88;;;;;;;5.95;71.22;93481.09;5000244;28;20026;-70
2021/04/18 04:26:01;;;;;;;32.58;17.25;;;;;;;5.93;71.11;93483.22;5002497;28;20474;-69
2021/04/18 04:28:26;;;;;;;35.92;20.75;;;;;;;5.92;71.40;93486.94;5002551;28;20527;-69
2021/04/18 04:30:52;;;;;;;30.60;17.35;;;;;;;5.89;71.27;93490.94;4997367;28;20026;-70
2021/04/18 04:33:17;;;;;;;27.42;16.88;;;;;;;5.88;71.42;93493.88;5004581;28;20501;-69
2021/04/18 04:35:43;;;;;;;28.85;16.67;;;;;;;5.87;71.43;93481.75;5005881;28;20406;-69
2021/04/18 04:38:09;;;;;;;27.08;15.70;;;;;;;5.87;71.57;93485.16;4987122;28;20022;-69
2021/04/18 04:40:34;;;;;;;27.90;16.58;;;;;;;5.93;71.61;93488.50;4997268;28;20022;-70
2021/04/18 04:43:00;;;;;;;28.77;17.60;;;;;;;5.97;71.46;93502.75;5001121;28;20112;-69
2021/04/18 04:45:27;;;;;;;31.20;17.73;;;;;;;5.99;71.01;93503.25;5006095;28;20109;-69
2021/04/18 04:47:52;;;;;;;32.65;17.25;;;;;;;5.99;71.32;93495.31;5008055;28;20030;-68
2021/04/18 04:50:18;;;;;;;30.52;16.65;;;;;;;6.01;70.81;93501.09;5001943;28;20339;-68
2021/04/18 04:52:43;;;;;;;27.85;17.02;;;;;;;6.00;71.08;93502.97;5000819;28;20531;-68
2021/04/18 04:55:09;;;;;;;28.00;17.13;;;;;;;6.01;71.19;93485.22;5003437;28;20039;-68
2021/04/18 04:57:35;;;;;;;29.50;17.08;;;;;;;6.05;70.95;93496.00;5000299;28;20026;-68
2021/04/18 05:00:00;;;;;;;25.55;15.52;;;;;;;6.07;70.70;93494.63;5006840;28;20489;-68
2021/04/18 05:02:26;;;;;;;26.13;15.85;;;;;;;6.10;70.46;93486.09;4997139;28;20037;-68
2021/04/18 05:04:51;;;;;;;25.02;15.60;;;;;;;6.04;70.96;93492.56;4997070;28;20441;-69
2021/04/18 05:07:17;;;;;;;22.40;14.45;;;;;;;6.07;70.25;93501.78;5009659;28;20115;-70
2021/04/18 05:09:42;;;;;;;24.25;15.43;;;;;;;5.99;70.47;93498.72;5003026;28;20040;-69
2021/04/18 05:12:09;;;;;;;22.35;14.43;;;;;;;6.00;70.72;93488.94;4993136;28;20027;-68
2021/04/18 05:14:34;;;;;;;28.05;14.45;;;;;;;5.98;71.07;93488.44;5000898;28;20050;-68
2021/04/18 05:17:00;;;;;;;25.92;15.57;;;;;;;6.00;71.16;93483.63;4999374;28;20092;-69
2021/04/18 05:19:26;;;;;;;24.40;14.80;;;;;;;6.03;71.24;93485.72;4995537;28;20042;-68
2021/04/18 05:21:51;;;;;;;27.35;15.75;;;;;;;6.01;71.44;93479.94;5005075;28;20041;-69
2021/04/18 05:24:17;;;;;;;26.40;15.52;;;;;;;6.08;71.53;93474.25;5006957;28;20058;-69
2021/04/18 05:26:42;;;;;;;29.80;15.68;;;;;;;6.12;71.40;93472.56;4998406;28;20030;-69
2021/04/18 05:29:07;;;;;;;30.67;14.70;;;;;;;6.14;71.13;93476.50;5004386;28;20030;-68
2021/04/18 05:31:33;;;;;;;25.58;13.38;;;;;;;6.16;71.33;93471.69;5007750;28;20129;-68
2021/04/18 05:33:59;;;;;;;21.23;12.93;;;;;;;6.18;71.18;93466.88;5001569;28;20396;-68
2021/04/18 05:36:25;;;;;;;22.90;13.05;;;;;;;6.22;71.03;93485.59;5006012;28;20068;-69
2021/04/18 05:38:50;;;;;;;23.63;13.10;;;;;;;6.25;70.60;93476.28;4997391;28;20026;-69
2021/04/18 05:41:15;;;;;;;22.10;11.95;;;;;;;6.31;70.24;93486.50;5007076;28;20068;-69
2021/04/18 05:43:41;;;;;;;23.75;12.13;;;;;;;6.37;70.23;93480.03;4998270;28;20045;-69
2021/04/18 05:46:06;;;;;;;25.27;11.77;;;;;;;6.40;70.48;93476.00;5001364;28;20033;-69
2021/04/18 05:48:32;;;;;;;22.35;12.35;;;;;;;6.47;70.43;93480.88;4999292;28;20045;-69
2021/04/18 05:50:58;;;;;;;27.33;13.35;;;;;;;6.44;70.18;93492.84;5000729;28;20026;-69
2021/04/18 05:53:23;;;;;;;24.63;12.90;;;;;;;6.23;70.81;93497.78;5002558;28;20583;-70
2021/04/18 05:55:50;;;;;;;25.52;13.68;;;;;;;6.27;71.22;93503.25;5000735;28;20026;-69
2021/04/18 05:58:16;;;;;;;25.05;13.85;;;;;;;6.34;70.78;93498.34;5011091;28;20033;-69
2021/04/18 06:00:41;;;;;;;25.85;14.75;;;;;;;6.35;70.44;93492.78;5005484;28;20054;-71
2021/04/18 06:03:07;;;;;;;21.85;13.32;;;;;;;6.36;70.57;93496.97;5009214;28;20113;-70
2021/04/18 06:05:33;;;;;;;22.80;13.07;;;;;;;6.42;70.30;93502.97;5005259;28;20406;-69
2021/04/18 06:07:58;;;;;;;28.13;13.90;;;;;;;6.46;70.31;93503.16;4997587;28;20030;-69
2021/04/18 06:10:24;;;;;;;23.65;13.57;;;;;;;6.45;70.19;93501.56;4995714;28;20446;-69
2021/04/18 06:12:49;;;;;;;25.27;12.65;;;;;;;6.48;70.46;93498.34;5001071;28;20509;-70
2021/04/18 06:15:15;;;;;;;24.73;13.43;;;;;;;6.47;69.67;93494.91;4999540;28;20046;-70
2021/04/18 06:17:40;;;;;;;21.80;13.63;;;;;;;6.42;69.82;93502.97;5004916;28;20037;-70
2021/04/18 06:20:07;;;;;;;22.65;12.45;;;;;;;6.42;69.98;93506.38;5002053;28;20176;-69
2021/04/18 06:22:33;;;;;;;21.10;13.38;;;;;;;6.45;70.00;93504.22;4993546;28;20026;-70
2021/04/18 06:24:58;;;;;;;27.45;13.52;;;;;;;6.48;69.70;93501.78;5006587;28;20030;-69
2021/04/18 06:27:24;;;;;;;27.75;14.75;;;;;;;6.49;69.89;93498.03;5008836;28;20032;-69
2021/04/18 06:29:50;;;;;;;29.52;16.67;;;;;;;6.56;70.20;93506.38;4994827;28;20034;-69
2021/04/18 06:32:15;;;;;;;31.65;16.05;;;;;;;6.61;70.18;93524.81;4999868;28;20387;-70
2021/04/18 06:34:41;;;;;;;38.58;20.65;;;;;;;6.67;69.52;93520.19;5007699;28;20124;-69
2021/04/18 06:37:06;;;;;;;50.38;25.38;;;;;;;6.67;69.45;93506.94;4998294;28;20068;-69
2021/04/18 06:39:33;;;;;;;35.40;18.77;;;;;;;6.73;69.40;93510.28;4995313;28;20065;-70
2021/04/18 06:42:02;;;;;;;32.63;16.15;;;;;;;6.75;69.25;93518.72;5002203;28;20033;-70
2021/04/18 06:44:32;;;;;;;30.83;15.85;;;;;;;6.78;69.38;93518.91;5004363;28;20080;-70
2021/04/18 06:47:01;;;;;;;28.23;15.88;;;;;;;6.81;69.60;93523.59;5000177;28;20053;-69
2021/04/18 06:49:27;;;;;;;24.73;14.82;;;;;;;6.87;69.60;93529.59;4999582;28;20405;-70
2021/04/18 06:51:53;;;;;;;21.83;13.30;;;;;;;6.94;69.40;93523.88;4997883;28;20482;-70
2021/04/18 06:54:19;;;;;;;25.00;13.40;;;;;;;7.01;68.82;93526.91;4998928;28;20091;-70
2021/04/18 06:56:45;;;;;;;20.35;13.07;;;;;;;7.05;68.60;93527.09;4999232;28;20110;-70
2021/04/18 06:59:11;;;;;;;21.50;14.35;;;;;;;7.14;68.05;93528.72;5002036;28;20029;-70
2021/04/18 07:01:39;;;;;;;23.40;13.68;;;;;;;7.20;67.98;93521.44;4994859;28;20033;-70
2021/04/18 07:04:19;;;;;;;23.92;12.95;;;;;;;7.23;67.88;93528.81;4996379;28;20020;-70
2021/04/18 07:06:47;;;;;;;22.02;13.77;;;;;;;7.31;67.87;93529.97;4995434;28;20052;-70
2021/04/18 07:09:15;;;;;;;25.23;14.55;;;;;;;7.35;67.91;93534.38;4997025;28;20032;-70
2021/04/18 07:11:48;;;;;;;24.65;13.95;;;;;;;7.39;67.32;93532.69;4994243;28;20030;-69
2021/04/18 07:14:30;;;;;;;24.85;14.90;;;;;;;7.41;67.57;93527.09;4998470;28;20039;-69
2021/04/18 07:17:09;;;;;;;24.15;14.68;;;;;;;7.41;67.47;93525.22;5006976;28;20045;-69
2021/04/18 07:19:40;;;;;;;34.00;19.75;;;;;;;7.49;67.22;93533.53;4992855;28;20468;-71
2021/04/18 07:22:06;;;;;;;37.60;20.58;;;;;;;7.53;66.99;93529.97;5001121;28;20144;-70
2021/04/18 07:24:46;;;;;;;26.00;15.88;;;;;;;7.57;66.68;93528.28;5005014;28;20362;-70
2021/04/18 07:27:12;;;;;;;27.23;15.13;;;;;;;7.60;66.94;93529.56;5009616;28;20400;-70
2021/04/18 07:29:58;;;;;;;26.02;14.73;;;;;;;7.69;66.84;93535.69;5006149;28;20074;-71
2021/04/18 07:32:26;;;;;;;28.45;16.23;;;;;;;7.71;66.68;93536.16;5004270;28;20026;-70
2021/04/18 07:34:52;;;;;;;32.72;17.70;;;;;;;7.75;66.92;93528.41;4998805;28;20109;-69
2021/04/18 07:37:19;;;;;;;31.70;17.38;;;;;;;7.79;66.49;93539.97;4998743;28;20564;-70
2021/04/18 07:39:52;;;;;;;31.67;17.00;;;;;;;7.81;65.84;93532.50;5000746;28;20034;-71
2021/04/18 07:42:37;;;;;;;29.73;17.95;;;;;;;7.86;65.64;93534.22;5000407;28;20030;-70
2021/04/18 07:45:07;;;;;;;41.88;21.15;;;;;;;7.87;65.72;93541.88;4994967;28;20042;-70
2021/04/18 07:47:57;;;;;;;33.78;19.02;;;;;;;7.87;65.48;93547.19;5009256;28;20412;-72
2021/04/18 07:50:23;;;;;;;31.70;18.33;;;;;;;7.82;65.74;93552.66;4994713;28;20053;-69
2021/04/18 07:52:50;;;;;;;29.30;18.15;;;;;;;7.81;66.12;93549.19;4994854;28;20026;-70
2021/04/18 07:55:19;;;;;;;34.25;19.58;;;;;;;7.84;66.29;93548.59;4999562;28;20465;-69
2021/04/18 07:57:45;;;;;;;34.75;18.77;;;;;;;7.82;66.50;93544.69;5001375;28;20030;-69
2021/04/18 08:00:14;;;;;;;33.33;18.20;;;;;;;7.82;66.11;93550.75;5008026;28;20503;-69
2021/04/18 08:02:41;;;;;;;32.95;18.55;;;;;;;7.87;65.96;93552.50;4998649;28;20096;-70
2021/04/18 08:05:11;;;;;;;35.28;18.45;;;;;;;7.88;66.21;93548.78;5004549;28;20022;-70
2021/04/18 08:08:06;;;;;;;32.72;17.70;;;;;;;7.91;66.05;93558.78;5001414;28;20057;-70
2021/04/18 08:10:37;;;;;;;36.00;19.15;;;;;;;7.88;65.58;93548.00;4995684;28;20097;-70
2021/04/18 08:13:21;;;;;;;31.60;17.40;;;;;;;7.91;65.66;93558.00;4996238;28;20090;-72
2021/04/18 08:15:52;;;;;;;36.05;18.63;;;;;;;7.91;65.78;93555.34;4998046;28;20536;-72
2021/04/18 08:18:17;;;;;;;33.13;19.05;;;;;;;7.93;65.73;93556.59;4998143;28;20110;-71
2021/04/18 08:20:45;;;;;;;35.90;19.77;;;;;;;7.99;65.12;93559.91;4998070;28;20034;-71
2021/04/18 08:23:14;;;;;;;38.72;19.55;;;;;;;7.97;65.39;93562.09;4995626;28;20018;-71
2021/04/18 08:26:06;;;;;;;37.72;20.83;;;;;;;7.93;65.64;93556.59;5007373;28;20037;-71
2021/04/18 08:28:39;;;;;;;35.75;20.23;;;;;;;7.93;65.51;93561.13;5007486;28;20033;-72
2021/04/18 08:31:07;;;;;;;35.25;21.05;;;;;;;7.96;65.39;93565.84;5005174;28;20456;-70
2021/04/18 08:33:39;;;;;;;34.80;19.70;;;;;;;8.01;65.19;93561.19;5006784;28;20038;-70
2021/04/18 08:36:19;;;;;;;33.40;18.53;;;;;;;8.05;64.93;93564.00;5003237;28;20037;-71
2021/04/18 08:39:09;;;;;;;33.20;18.98;;;;;;;7.99;65.26;93565.22;5003286;28;20124;-75
2021/04/18 08:41:52;;;;;;;38.55;20.35;;;;;;;8.01;65.34;93571.00;4992856;28;20041;-74
2021/04/18 08:44:17;;;;;;;;;;;;;;;8.10;65.63;93569.22;5005305;28;20128;-75
2021/04/18 08:46:43;;;;;;;34.45;17.60;;;;;;;8.06;65.56;93568.25;4991226;28;20012;-76
2021/04/18 08:49:10;;;;;;;32.58;18.15;;;;;;;8.07;65.54;93561.06;5001635;28;20445;-77
2021/04/18 08:51:38;;;;;;;35.95;18.70;;;;;;;8.09;64.93;93558.88;5008162;28;20048;-74
2021/04/18 08:54:04;;;;;;;26.92;16.45;;;;;;;8.12;64.92;93574.19;5006055;28;20390;-72
2021/04/18 08:57:07;;;;;;;31.58;17.77;;;;;;;8.26;64.95;93579.41;4998867;28;20441;-76
2021/04/18 08:59:34;;;;;;;33.85;18.58;;;;;;;8.29;64.37;93573.50;4961049;28;20066;-73
2021/04/18 09:02:00;;;;;;;30.25;16.73;;;;;;;8.29;64.08;93578.81;5008032;28;20033;-73
2021/04/18 09:04:30;;;;;;;34.15;19.50;;;;;;;8.31;64.28;93580.09;5011498;28;20128;-71
2021/04/18 09:06:55;;;;;;;30.02;17.83;;;;;;;8.32;64.11;93578.97;4999513;28;20026;-70
2021/04/18 09:09:21;;;;;;;36.17;17.80;;;;;;;8.23;63.97;93583.47;5011502;28;20060;-72
2021/04/18 09:11:48;;;;;;;38.78;20.50;;;;;;;8.16;64.16;93575.94;5009551;28;20107;-72
2021/04/18 09:14:23;;;;;;;31.58;17.40;;;;;;;8.22;64.86;93588.00;5009600;28;20058;-72
2021/04/18 09:16:49;;;;;;;28.92;17.00;;;;;;;8.19;63.94;93580.63;5003913;28;20026;-73
2021/04/18 09:19:21;;;;;;;37.10;19.65;;;;;;;8.13;64.79;93584.50;5010422;28;20033;-72
2021/04/18 09:21:52;;;;;;;;;;;;;;;8.13;65.71;93592.47;5006131;28;20026;-72
2021/04/18 09:24:18;;;;;;;29.25;17.20;;;;;;;8.06;66.20;93586.81;4990263;28;19913;-72
2021/04/18 09:26:58;;;;;;;30.98;17.48;;;;;;;8.09;65.96;93583.56;4990126;28;20029;-72
2021/04/18 09:29:23;;;;;;;32.92;15.90;;;;;;;8.19;64.90;93585.94;4990210;28;20038;-71
2021/04/18 09:32:10;;;;;;;28.80;16.83;;;;;;;8.28;65.61;93593.19;4990183;28;20054;-72
2021/04/18 09:34:38;;;;;;;29.02;15.95;;;;;;;8.36;64.66;93584.47;4991072;28;20068;-72
2021/04/18 09:37:06;;;;;;;28.73;17.40;;;;;;;8.36;64.23;93590.56;4992819;28;20030;-72
2021/04/18 09:39:34;;;;;;;29.88;16.92;;;;;;;8.31;64.17;93588.03;5001274;28;20072;-72
2021/04/18 09:42:00;;;;;;;28.02;15.60;;;;;;;8.37;63.56;93586.81;5009514;28;20604;-72
2021/04/18 09:44:32;;;;;;;30.05;16.88;;;;;;;8.35;63.78;93582.91;5009662;28;20215;-72
2021/04/18 09:46:59;;;;;;;;;;;;;;;8.32;64.24;93589.59;5002091;28;20038;-72
2021/04/18 09:49:25;;;;;;;26.83;15.75;;;;;;;8.36;64.90;93579.94;5010970;28;20335;-71
2021/04/18 09:51:56;;;;;;;31.20;15.27;;;;;;;8.44;64.03;93581.88;4999829;28;20034;-72
2021/04/18 09:54:33;;;;;;;37.90;16.17;;;;;;;8.47;63.97;93580.50;4989726;28;20037;-72
2021/04/18 09:57:19;;;;;;;28.80;15.95;;;;;;;8.56;63.99;93575.22;4991118;28;20366;-73
2021/04/18 09:59:59;;;;;;;28.10;14.88;;;;;;;8.65;62.99;93581.38;4989600;28;20038;-72
2021/04/18 10:02:24;;;;;;;26.25;15.18;;;;;;;8.61;63.68;93583.06;4989652;28;20026;-72
2021/04/18 10:05:06;;;;;;;30.55;16.38;;;;;;;8.67;63.47;93589.00;4989187;28;20092;-72
2021/04/18 10:07:31;;;;;;;32.90;15.63;;;;;;;8.64;63.55;93591.19;5006241;28;20400;-72
2021/04/18 10:09:57;;;;;;;28.13;15.63;;;;;;;8.78;63.50;93596.41;5000859;28;20022;-73
2021/04/18 10:12:22;;;;;;;31.98;18.35;;;;;;;8.91;64.14;93596.59;4989178;28;20026;-73
2021/04/18 10:15:04;;;;;;;36.25;17.35;;;;;;;9.06;63.28;93579.41;4989999;28;20181;-72
2021/04/18 10:17:35;;;;;;;30.52;16.25;;;;;;;9.03;61.86;93589.56;5009481;28;20092;-73
2021/04/18 10:20:00;;;;;;;26.10;15.13;;;;;;;9.07;61.50;93586.31;5000490;28;20530;-73
2021/04/18 10:22:26;;;;;;;25.98;13.95;;;;;;;9.30;61.46;93589.63;5008741;28;20038;-72
2021/04/18 10:24:52;;;;;;;28.25;14.80;;;;;;;9.42;60.60;93587.13;5010066;28;20033;-72
2021/04/18 10:27:25;;;;;;;25.08;13.52;;;;;;;9.46;60.19;93582.75;5009904;28;20041;-72
2021/04/18 10:29:51;;;;;;;29.67;16.38;;;;;;;9.48;60.84;93579.78;5009927;28;20409;-73
2021/04/18 10:32:18;;;;;;;24.60;15.18;;;;;;;9.54;60.75;93589.97;5008797;28;20037;-72
2021/04/18 10:34:45;;;;;;;24.30;14.48;;;;;;;9.51;60.03;93592.50;4998585;28;20026;-73
2021/04/18 10:37:11;;;;;;;25.95;15.32;;;;;;;9.53;59.76;93587.63;4988939;28;21043;-73
2021/04/18 10:39:36;;;;;;;25.92;15.77;;;;;;;9.47;59.99;93589.66;4990430;28;20030;-72
2021/04/18 10:42:02;;;;;;;33.70;17.48;;;;;;;9.38;60.59;93594.97;4998338;28;20097;-73
2021/04/18 10:44:28;;;;;;;34.13;19.63;;;;;;;9.23;62.40;93608.72;5008238;28;20014;-73
2021/04/18 10:46:59;;;;;;;34.72;19.00;;;;;;;9.03;62.63;93592.25;5008555;28;20026;-71
2021/04/18 10:49:26;;;;;;;43.90;20.77;;;;;;;8.86;63.89;93613.47;5008414;28;20025;-72
2021/04/18 10:51:51;;;;;;;37.13;20.40;;;;;;;8.73;63.45;93604.53;5009091;28;20038;-70
2021/04/18 10:54:17;;;;;;;39.80;21.27;;;;;;;8.48;64.20;93605.19;5009626;28;20097;-72
2021/04/18 10:56:47;;;;;;;33.60;18.55;;;;;;;8.33;65.03;93595.72;4994162;28;20034;-71
2021/04/18 10:59:12;;;;;;;40.75;20.00;;;;;;;8.29;66.44;93602.72;4991537;28;20354;-71
2021/04/18 11:01:38;;;;;;;39.92;21.65;;;;;;;8.30;66.93;93602.41;5009770;28;20116;-71
2021/04/18 11:04:04;;;;;;;44.95;23.02;;;;;;;8.34;67.73;93606.00;5008172;28;20535;-72
2021/04/18 11:06:29;;;;;;;44.03;24.83;;;;;;;8.37;66.52;93601.97;5008467;28;20037;-72
2021/04/18 11:08:55;;;;;;;47.72;24.55;;;;;;;8.29;67.28;93606.16;4989364;28;20076;-72
2021/04/18 11:11:23;;;;;;;44.08;23.63;;;;;;;8.15;67.26;93616.84;4987307;28;20018;-71
2021/04/18 11:13:48;;;;;;;48.38;24.95;;;;;;;8.07;67.94;93599.00;4990251;28;20046;-72
2021/04/18 11:16:14;;;;;;;44.53;24.38;;;;;;;8.10;67.70;93602.91;4988779;28;20524;-71
2021/04/18 11:18:39;;;;;;;42.90;22.75;;;;;;;8.00;67.88;93604.75;4990130;28;20026;-71
2021/04/18 11:21:05;;;;;;;48.22;24.73;;;;;;;7.90;68.32;93609.50;4988863;28;20525;-72
2021/04/18 11:23:30;;;;;;;48.92;25.38;;;;;;;7.84;68.85;93606.97;4988606;28;20026;-71
2021/04/18 11:25:56;;;;;;;45.00;23.30;;;;;;;7.90;69.29;93602.34;4988673;28;20018;-71
2021/04/18 11:28:21;;;;;;;51.28;26.48;;;;;;;7.86;69.00;93600.56;4998941;28;20509;-71